createdAt,value
2023-05-12T00:01:46.848Z,5.50
2023-05-12T00:04:14.150Z,5.45
2023-05-12T00:06:41.404Z,5.30
2023-05-12T00:09:08.475Z,4.85
2023-05-12T00:11:37.967Z,5.13
2023-05-12T00:14:05.118Z,5.35
2023-05-12T00:16:32.523Z,5.70
2023-05-12T00:18:59.631Z,4.13
2023-05-12T00:21:26.752Z,4.53
2023-05-12T00:23:53.867Z,4.45
2023-05-12T00:26:21.144Z,4.85
2023-05-12T00:28:48.848Z,5.70
2023-05-12T00:31:16.067Z,3.90
2023-05-12T00:33:43.253Z,4.30
2023-05-12T00:36:10.244Z,3.95
2023-05-12T00:38:37.562Z,4.78
2023-05-12T00:41:04.822Z,4.45
2023-05-12T00:43:32.132Z,4.70
2023-05-12T00:46:00.594Z,4.32
2023-05-12T00:48:27.954Z,4.82
2023-05-12T00:50:56.855Z,4.38
2023-05-12T00:53:25.775Z,5.07
2023-05-12T00:55:55.757Z,4.30
2023-05-12T00:58:23.043Z,4.45
2023-05-12T01:00:50.538Z,4.32
2023-05-12T01:03:19.187Z,4.50
2023-05-12T01:05:51.234Z,4.22
2023-05-12T01:08:20.365Z,4.57
2023-05-12T01:10:48.730Z,4.07
2023-05-12T01:13:17.723Z,5.07
2023-05-12T01:15:48.106Z,4.82
2023-05-12T01:18:16.901Z,4.75
2023-05-12T01:20:44.805Z,4.70
2023-05-12T01:23:14.163Z,4.18
2023-05-12T01:25:42.130Z,3.33
2023-05-12T01:28:10.542Z,3.42
2023-05-12T01:30:43.330Z,4.43
2023-05-12T01:33:12.650Z,3.75
2023-05-12T01:35:39.944Z,3.85
2023-05-12T01:38:06.988Z,3.90
2023-05-12T01:40:39.242Z,4.25
2023-05-12T01:43:06.482Z,3.78
2023-05-12T01:45:33.796Z,3.58
2023-05-12T01:48:01.301Z,4.38
2023-05-12T01:50:28.834Z,3.92
2023-05-12T01:52:56.241Z,3.42
2023-05-12T01:55:23.390Z,4.38
2023-05-12T01:57:54.170Z,3.85
2023-05-12T02:00:21.870Z,4.05
2023-05-12T02:02:51.828Z,3.33
2023-05-12T02:05:19.089Z,2.47
2023-05-12T02:07:49.507Z,2.60
2023-05-12T02:10:18.378Z,3.30
2023-05-12T02:12:49.146Z,3.45
2023-05-12T02:15:16.726Z,3.33
2023-05-12T02:17:46.858Z,3.47
2023-05-12T02:20:16.253Z,2.90
2023-05-12T02:22:43.721Z,3.67
2023-05-12T02:25:11.171Z,3.28
2023-05-12T02:27:38.327Z,4.30
2023-05-12T02:30:06.897Z,3.35
2023-05-12T02:32:35.355Z,3.50
2023-05-12T02:35:02.601Z,3.35
2023-05-12T02:37:31.838Z,3.28
2023-05-12T02:39:59.316Z,3.28
2023-05-12T02:42:28.992Z,2.88
2023-05-12T02:44:56.447Z,4.05
2023-05-12T02:47:23.809Z,4.18
2023-05-12T02:49:51.304Z,3.28
2023-05-12T02:52:18.535Z,3.65
2023-05-12T02:54:45.628Z,3.80
2023-05-12T02:57:12.782Z,3.40
2023-05-12T02:59:39.920Z,4.05
2023-05-12T03:02:07.872Z,3.53
2023-05-12T03:04:35.346Z,3.45
2023-05-12T03:07:03.044Z,4.00
2023-05-12T03:09:30.443Z,3.38
2023-05-12T03:11:57.401Z,4.45
2023-05-12T03:14:26.349Z,4.82
2023-05-12T03:16:53.538Z,3.90
2023-05-12T03:19:20.776Z,4.75
2023-05-12T03:21:47.862Z,4.35
2023-05-12T03:24:15.132Z,3.85
2023-05-12T03:26:42.579Z,4.43
2023-05-12T03:29:09.677Z,4.47
2023-05-12T03:31:37.112Z,4.85
2023-05-12T03:34:04.937Z,4.47
2023-05-12T03:36:32.102Z,5.13
2023-05-12T03:38:59.221Z,5.10
2023-05-12T03:41:26.298Z,4.15
2023-05-12T03:43:53.307Z,5.03
2023-05-12T03:46:21.301Z,5.60
2023-05-12T03:48:48.385Z,5.38
2023-05-12T03:51:15.548Z,5.57
2023-05-12T03:53:45.498Z,4.63
2023-05-12T03:56:15.792Z,5.35
2023-05-12T03:58:43.927Z,6.15
2023-05-12T04:01:11.038Z,4.70
2023-05-12T04:03:38.122Z,4.57
2023-05-12T04:06:05.389Z,5.45
2023-05-12T04:08:32.505Z,5.72
2023-05-12T04:11:01.876Z,4.80
2023-05-12T04:13:32.012Z,6.00
2023-05-12T04:15:59.388Z,5.40
2023-05-12T04:18:28.065Z,6.13
2023-05-12T04:20:56.022Z,5.25
2023-05-12T04:23:23.503Z,5.30
2023-05-12T04:25:50.511Z,5.43
2023-05-12T04:28:17.996Z,5.05
2023-05-12T04:30:45.889Z,5.35
2023-05-12T04:33:12.978Z,5.43
2023-05-12T04:35:40.878Z,5.18
2023-05-12T04:38:10.031Z,5.93
2023-05-12T04:40:37.995Z,5.28
2023-05-12T04:43:05.164Z,6.35
2023-05-12T04:45:32.685Z,5.35
2023-05-12T04:48:00.176Z,5.47
2023-05-12T04:50:27.341Z,5.60
2023-05-12T04:52:54.507Z,6.32
2023-05-12T04:55:22.033Z,6.30
2023-05-12T04:57:49.971Z,5.35
2023-05-12T05:00:17.142Z,6.38
2023-05-12T05:02:45.640Z,6.40
2023-05-12T05:05:12.905Z,6.65
2023-05-12T05:07:40.608Z,6.35
2023-05-12T05:10:08.546Z,6.05
2023-05-12T05:12:35.954Z,5.47
2023-05-12T05:15:03.154Z,5.97
2023-05-12T05:17:33.947Z,6.25
2023-05-12T05:20:01.252Z,6.03
2023-05-12T05:22:33.858Z,6.32
2023-05-12T05:25:01.261Z,5.40
2023-05-12T05:27:32.217Z,7.07
2023-05-12T05:29:59.460Z,7.57
2023-05-12T05:32:27.022Z,7.03
2023-05-12T05:34:54.168Z,6.82
2023-05-12T05:37:21.377Z,8.35
2023-05-12T05:39:48.570Z,6.38
2023-05-12T05:42:15.921Z,6.57
2023-05-12T05:44:43.706Z,7.05
2023-05-12T05:47:11.457Z,6.82
2023-05-12T05:49:38.781Z,7.03
2023-05-12T05:52:06.913Z,7.38
2023-05-12T05:54:33.970Z,7.28
2023-05-12T05:57:02.322Z,8.55
2023-05-12T05:59:30.418Z,8.00
2023-05-12T06:01:57.735Z,6.78
2023-05-12T06:04:25.080Z,7.13
2023-05-12T06:06:52.141Z,6.70
2023-05-12T06:09:21.224Z,6.95
2023-05-12T06:11:49.290Z,7.80
2023-05-12T06:14:17.336Z,7.30
2023-05-12T06:16:44.575Z,7.28
2023-05-12T06:19:12.447Z,5.95
2023-05-12T06:21:41.041Z,6.05
2023-05-12T06:24:08.269Z,6.80
2023-05-12T06:26:36.599Z,6.03
2023-05-12T06:29:06.874Z,5.97
2023-05-12T06:31:34.012Z,6.50
2023-05-12T06:34:01.093Z,5.53
2023-05-12T06:36:28.967Z,4.70
2023-05-12T06:38:56.921Z,4.57
2023-05-12T06:41:25.244Z,5.63
2023-05-12T06:43:52.566Z,4.30
2023-05-12T06:46:27.657Z,3.83
2023-05-12T06:48:57.984Z,3.55
2023-05-12T06:51:25.148Z,3.85
2023-05-12T06:53:52.382Z,4.53
2023-05-12T06:56:19.435Z,4.57
2023-05-12T06:58:48.141Z,3.58
2023-05-12T07:01:15.739Z,2.78
2023-05-12T07:03:42.853Z,3.97
2023-05-12T07:06:10.258Z,3.25
2023-05-12T07:08:37.405Z,3.28
2023-05-12T07:11:04.475Z,3.10
2023-05-12T07:13:31.502Z,3.78
2023-05-12T07:15:58.629Z,3.35
2023-05-12T07:18:26.003Z,3.10
2023-05-12T07:20:53.474Z,3.83
2023-05-12T07:23:20.793Z,2.83
2023-05-12T07:25:48.029Z,3.28
2023-05-12T07:28:15.495Z,3.60
2023-05-12T07:30:43.114Z,3.42
2023-05-12T07:33:10.342Z,3.80
2023-05-12T07:35:37.493Z,3.58
2023-05-12T07:38:04.665Z,4.05
2023-05-12T07:40:31.830Z,3.40
2023-05-12T07:42:58.908Z,3.53
2023-05-12T07:45:26.124Z,3.80
2023-05-12T07:47:53.442Z,3.15
2023-05-12T07:50:21.554Z,3.05
2023-05-12T07:52:50.542Z,3.38
2023-05-12T07:55:18.880Z,3.00
2023-05-12T07:57:46.374Z,2.20
2023-05-12T08:00:14.496Z,3.58
2023-05-12T08:02:42.938Z,3.00
2023-05-12T08:05:10.828Z,2.38
2023-05-12T08:07:41.101Z,2.65
2023-05-12T08:10:09.408Z,2.60
2023-05-12T08:12:36.368Z,2.53
2023-05-12T08:15:03.693Z,2.70
2023-05-12T08:17:33.772Z,2.65
2023-05-12T08:20:04.509Z,2.35
2023-05-12T08:22:36.525Z,2.33
2023-05-12T08:25:03.825Z,2.33
2023-05-12T08:27:33.810Z,2.05
2023-05-12T08:30:01.003Z,2.45
2023-05-12T08:32:28.435Z,2.85
2023-05-12T08:34:55.425Z,2.50
2023-05-12T08:37:22.676Z,2.17
2023-05-12T08:39:49.908Z,2.53
2023-05-12T08:42:44.561Z,2.10
2023-05-12T08:45:14.580Z,1.95
2023-05-12T08:47:42.979Z,2.20
2023-05-12T08:50:11.766Z,2.30
2023-05-12T08:52:39.578Z,2.35
2023-05-12T08:55:09.350Z,2.70
2023-05-12T08:57:39.527Z,2.88
2023-05-12T09:00:09.036Z,2.25
2023-05-12T09:02:51.937Z,2.13
2023-05-12T09:05:22.039Z,3.80
2023-05-12T09:07:50.548Z,2.42
2023-05-12T09:10:33.750Z,2.22
2023-05-12T09:13:26.549Z,1.65
2023-05-12T09:15:56.714Z,2.28
2023-05-12T09:18:23.906Z,2.17
2023-05-12T09:20:51.058Z,2.50
2023-05-12T09:23:20.367Z,2.63
2023-05-12T09:25:48.353Z,2.63
2023-05-12T09:28:16.029Z,2.45
2023-05-12T09:30:43.284Z,2.90
2023-05-12T09:33:12.462Z,2.35
2023-05-12T09:35:40.424Z,2.90
2023-05-12T09:38:09.227Z,2.58
2023-05-12T09:40:36.829Z,1.85
2023-05-12T09:43:06.499Z,2.55
2023-05-12T09:45:39.001Z,2.63
2023-05-12T09:48:11.096Z,2.40
2023-05-12T09:50:50.588Z,2.17
2023-05-12T09:53:19.422Z,2.75
2023-05-12T09:55:48.008Z,2.88
2023-05-12T09:58:17.393Z,2.35
2023-05-12T10:03:23.954Z,2.30
2023-05-12T10:05:57.743Z,2.67
2023-05-12T10:08:30.256Z,2.42
2023-05-12T10:11:00.253Z,2.50
2023-05-12T10:13:28.192Z,2.30
2023-05-12T10:15:59.385Z,2.67
2023-05-12T10:18:26.814Z,2.85
2023-05-12T10:20:54.306Z,1.92
2023-05-12T10:23:22.815Z,2.40
2023-05-12T10:25:50.190Z,3.00
2023-05-12T10:28:17.551Z,2.90
2023-05-12T10:30:45.652Z,3.50
2023-05-12T10:33:12.762Z,2.45
2023-05-12T10:35:40.359Z,2.85
2023-05-12T10:38:09.732Z,2.72
2023-05-12T10:40:37.002Z,2.97
2023-05-12T10:43:05.029Z,2.80
2023-05-12T10:45:37.553Z,2.30
2023-05-12T10:48:07.185Z,2.55
2023-05-12T10:50:34.365Z,2.50
2023-05-12T10:53:01.660Z,3.33
2023-05-12T10:55:43.911Z,3.45
2023-05-12T10:58:13.328Z,2.53
2023-05-12T11:00:52.885Z,2.40
2023-05-12T11:03:25.671Z,2.28
2023-05-12T11:06:05.200Z,2.78
2023-05-12T11:08:35.721Z,2.60
2023-05-12T11:11:03.381Z,2.38
2023-05-12T11:13:30.655Z,2.25
2023-05-12T11:15:58.365Z,2.50
2023-05-12T11:18:25.565Z,2.50
2023-05-12T11:20:52.650Z,2.97
2023-05-12T11:23:28.994Z,2.50
2023-05-12T11:25:57.277Z,3.03
2023-05-12T11:28:24.677Z,2.90
2023-05-12T11:30:54.999Z,3.15
2023-05-12T11:33:25.633Z,2.05
2023-05-12T11:35:52.808Z,2.78
2023-05-12T11:38:20.119Z,2.00
2023-05-12T11:40:47.424Z,2.50
2023-05-12T11:43:15.410Z,2.30
2023-05-12T11:45:42.438Z,2.15
2023-05-12T11:48:15.396Z,2.97
2023-05-12T11:50:46.796Z,2.67
2023-05-12T11:53:19.720Z,2.40
2023-05-12T11:58:29.990Z,2.22
2023-05-12T12:00:57.874Z,2.42
2023-05-12T12:03:25.685Z,2.33
2023-05-12T12:06:01.109Z,2.78
2023-05-12T12:08:28.944Z,2.55
2023-05-12T12:10:56.094Z,2.85
2023-05-12T12:13:24.844Z,2.20
2023-05-12T12:15:52.783Z,2.50
2023-05-12T12:18:20.027Z,2.83
2023-05-12T12:20:47.691Z,2.58
2023-05-12T12:23:14.840Z,2.72
2023-05-12T12:25:41.873Z,2.50
2023-05-12T12:28:09.225Z,2.35
2023-05-12T12:30:36.317Z,2.78
2023-05-12T12:33:03.346Z,2.85
2023-05-12T12:35:30.440Z,2.70
2023-05-12T12:37:58.830Z,2.58
2023-05-12T12:40:26.031Z,2.25
2023-05-12T12:42:53.500Z,2.30
2023-05-12T12:45:20.800Z,2.42
2023-05-12T12:47:48.178Z,2.17
2023-05-12T12:50:15.440Z,2.58
2023-05-12T12:52:43.269Z,2.25
2023-05-12T12:55:10.431Z,2.15
2023-05-12T12:57:37.853Z,1.98
2023-05-12T13:00:05.816Z,2.50
2023-05-12T13:02:38.918Z,2.13
2023-05-12T13:05:07.280Z,3.10
2023-05-12T13:07:34.804Z,2.45
2023-05-12T13:10:02.992Z,2.22
2023-05-12T13:12:33.188Z,2.20
2023-05-12T13:15:00.948Z,2.40
2023-05-12T13:17:28.743Z,2.08
2023-05-12T13:19:55.887Z,2.50
2023-05-12T13:22:23.051Z,2.55
2023-05-12T13:24:50.109Z,2.85
2023-05-12T13:27:17.256Z,3.00
2023-05-12T13:29:47.451Z,3.45
2023-05-12T13:32:17.825Z,2.33
2023-05-12T13:34:44.909Z,3.13
2023-05-12T13:37:12.361Z,3.17
2023-05-12T13:39:39.622Z,2.60
2023-05-12T13:42:10.181Z,2.55
2023-05-12T13:45:09.348Z,2.08
2023-05-12T13:47:36.727Z,3.05
2023-05-12T13:50:03.906Z,2.95
2023-05-12T13:52:31.506Z,3.17
2023-05-12T13:54:58.732Z,2.88
2023-05-12T13:57:26.014Z,2.38
2023-05-12T13:59:54.994Z,3.85
2023-05-12T14:02:22.178Z,2.35
2023-05-12T14:04:49.534Z,2.85
2023-05-12T14:07:17.196Z,3.35
2023-05-12T14:09:44.255Z,2.53
2023-05-12T14:12:11.510Z,3.00
2023-05-12T14:14:38.742Z,3.15
2023-05-12T14:17:05.972Z,3.33
2023-05-12T14:19:33.137Z,3.25
2023-05-12T14:22:00.901Z,2.80
2023-05-12T14:24:28.981Z,3.00
2023-05-12T14:26:56.263Z,2.75
2023-05-12T14:29:24.631Z,3.00
2023-05-12T14:31:51.931Z,2.92
2023-05-12T14:34:23.574Z,2.70
2023-05-12T14:36:51.189Z,3.38
2023-05-12T14:39:18.370Z,2.92
2023-05-12T14:41:45.597Z,3.30
2023-05-12T14:44:12.741Z,3.00
2023-05-12T14:46:39.880Z,2.65
2023-05-12T14:49:11.178Z,3.72
2023-05-12T14:51:38.508Z,2.63
2023-05-12T14:54:15.057Z,3.03
2023-05-12T14:56:50.309Z,3.00
2023-05-12T14:59:17.952Z,3.05
2023-05-12T15:01:45.311Z,2.40
2023-05-12T15:04:13.590Z,2.55
2023-05-12T15:06:44.788Z,2.83
2023-05-12T15:09:12.424Z,2.63
2023-05-12T15:11:39.909Z,3.08
2023-05-12T15:14:07.782Z,2.85
2023-05-12T15:16:38.099Z,2.78
2023-05-12T15:19:05.483Z,2.30
2023-05-12T15:21:36.750Z,2.08
2023-05-12T15:24:04.625Z,2.50
2023-05-12T15:26:34.226Z,2.20
2023-05-12T15:29:02.740Z,2.83
2023-05-12T15:31:30.241Z,2.83
2023-05-12T15:33:58.138Z,2.60
2023-05-12T15:36:25.221Z,2.78
2023-05-12T15:38:52.552Z,2.92
2023-05-12T15:41:19.769Z,2.38
2023-05-12T15:43:46.833Z,2.65
2023-05-12T15:46:14.043Z,2.60
2023-05-12T15:48:41.180Z,3.15
2023-05-12T15:51:08.150Z,2.00
2023-05-12T15:53:35.318Z,2.95
2023-05-12T15:56:03.845Z,2.90
2023-05-12T15:58:31.612Z,3.33
2023-05-12T16:00:59.543Z,3.10
2023-05-12T16:03:27.381Z,2.20
2023-05-12T16:05:55.321Z,2.65
2023-05-12T16:08:24.192Z,2.97
2023-05-12T16:10:51.386Z,3.00
2023-05-12T16:13:18.519Z,2.78
2023-05-12T16:15:45.642Z,2.80
2023-05-12T16:18:12.759Z,2.42
2023-05-12T16:20:41.779Z,2.47
2023-05-12T16:23:08.933Z,1.60
2023-05-12T16:25:36.101Z,2.67
2023-05-12T16:28:03.761Z,1.85
2023-05-12T16:30:30.950Z,2.47
2023-05-12T16:32:57.975Z,2.42
2023-05-12T16:35:25.178Z,2.38
2023-05-12T16:37:52.842Z,1.67
2023-05-12T16:40:20.441Z,2.03
2023-05-12T16:42:48.005Z,2.42
2023-05-12T16:45:15.258Z,2.70
2023-05-12T16:47:42.601Z,2.38
2023-05-12T16:50:10.383Z,2.40
2023-05-12T16:52:37.535Z,2.05
2023-05-12T16:55:05.024Z,3.10
2023-05-12T16:57:32.622Z,3.05
2023-05-12T17:00:00.931Z,2.38
2023-05-12T17:02:28.070Z,3.25
2023-05-12T17:04:55.279Z,2.50
2023-05-12T17:07:23.378Z,2.67
2023-05-12T17:09:50.677Z,2.38
2023-05-12T17:12:18.169Z,2.67
2023-05-12T17:14:50.115Z,2.53
2023-05-12T17:17:20.404Z,2.28
2023-05-12T17:19:47.453Z,3.05
2023-05-12T17:22:14.697Z,2.90
2023-05-12T17:24:41.858Z,2.72
2023-05-12T17:27:09.020Z,2.17
2023-05-12T17:29:36.037Z,2.47
2023-05-12T17:32:03.342Z,2.50
2023-05-12T17:34:30.335Z,2.58
2023-05-12T17:36:57.975Z,2.13
2023-05-12T17:39:25.059Z,2.47
2023-05-12T17:41:52.130Z,3.22
2023-05-12T17:44:19.236Z,2.40
2023-05-12T17:46:46.291Z,2.88
2023-05-12T17:49:13.315Z,2.60
2023-05-12T17:51:40.436Z,2.80
2023-05-12T17:54:08.115Z,3.03
2023-05-12T17:56:35.186Z,3.15
2023-05-12T17:59:03.477Z,2.03
2023-05-12T18:01:30.835Z,2.75
2023-05-12T18:03:58.274Z,3.45
2023-05-12T18:06:25.313Z,2.20
2023-05-12T18:08:52.352Z,3.83
2023-05-12T18:11:19.383Z,2.22
2023-05-12T18:13:46.547Z,2.70
2023-05-12T18:16:25.207Z,2.40
2023-05-12T18:18:55.772Z,2.55
2023-05-12T18:21:23.011Z,2.38
2023-05-12T18:23:50.213Z,2.63
2023-05-12T18:26:17.400Z,2.00
2023-05-12T18:28:44.457Z,1.85
2023-05-12T18:33:41.557Z,3.10
2023-05-12T18:36:09.059Z,3.08
2023-05-12T18:38:36.049Z,2.83
2023-05-12T18:41:03.486Z,4.03
2023-05-12T18:43:30.592Z,3.72
2023-05-12T18:45:57.668Z,3.53
2023-05-12T18:48:24.836Z,4.50
2023-05-12T18:50:51.922Z,3.70
2023-05-12T18:53:18.969Z,3.63
2023-05-12T18:55:46.426Z,4.18
2023-05-12T18:58:13.684Z,3.90
2023-05-12T19:00:40.861Z,3.42
2023-05-12T19:03:08.236Z,3.17
2023-05-12T19:05:35.837Z,3.60
2023-05-12T19:08:05.985Z,4.40
2023-05-12T19:10:33.097Z,4.38
2023-05-12T19:13:00.159Z,3.70
2023-05-12T19:15:27.145Z,4.53
2023-05-12T19:17:54.356Z,3.67
2023-05-12T19:20:21.425Z,3.72
2023-05-12T19:22:51.228Z,5.18
2023-05-12T19:25:18.613Z,4.05
2023-05-12T19:27:46.251Z,5.18
2023-05-12T19:30:14.272Z,3.60
2023-05-12T19:32:42.764Z,3.78
2023-05-12T19:35:13.169Z,4.13
2023-05-12T19:37:41.676Z,4.13
2023-05-12T19:40:09.169Z,4.53
2023-05-12T19:42:38.032Z,4.35
2023-05-12T19:45:06.098Z,4.10
2023-05-12T19:47:35.306Z,4.30
2023-05-12T19:50:02.312Z,4.07
2023-05-12T19:52:31.795Z,4.35
2023-05-12T19:54:58.941Z,4.22
2023-05-12T19:57:26.585Z,4.38
2023-05-12T19:59:53.539Z,4.18
2023-05-12T20:02:20.886Z,4.82
2023-05-12T20:04:48.293Z,4.63
2023-05-12T20:07:16.437Z,3.63
2023-05-12T20:09:43.422Z,3.78
2023-05-12T20:12:10.451Z,4.35
2023-05-12T20:14:38.530Z,4.30
2023-05-12T20:17:07.656Z,4.35
2023-05-12T20:19:35.753Z,5.60
2023-05-12T20:22:02.933Z,3.75
2023-05-12T20:24:30.105Z,3.53
2023-05-12T20:26:57.064Z,3.58
2023-05-12T20:29:26.007Z,3.97
2023-05-12T20:31:53.255Z,5.55
2023-05-12T20:34:45.893Z,4.70
2023-05-12T20:37:16.017Z,4.20
2023-05-12T20:39:43.075Z,3.90
2023-05-12T20:42:10.270Z,4.43
2023-05-12T20:44:37.437Z,3.83
2023-05-12T20:47:04.736Z,3.60
2023-05-12T20:49:31.811Z,3.75
2023-05-12T20:51:59.248Z,4.07
2023-05-12T20:54:26.464Z,4.07
2023-05-12T20:56:53.516Z,5.65
2023-05-12T20:59:24.578Z,4.97
2023-05-12T21:01:51.646Z,3.88
2023-05-12T21:04:18.924Z,3.83
2023-05-12T21:06:46.936Z,4.72
2023-05-12T21:09:14.141Z,4.40
2023-05-12T21:11:41.670Z,4.55
2023-05-12T21:14:08.833Z,4.63
2023-05-12T21:16:36.042Z,3.67
2023-05-12T21:19:03.229Z,4.53
2023-05-12T21:21:30.206Z,4.18
2023-05-12T21:23:57.226Z,4.15
2023-05-12T21:26:26.171Z,3.95
2023-05-12T21:28:53.221Z,3.90
2023-05-12T21:31:20.264Z,3.72
2023-05-12T21:33:48.182Z,4.10
2023-05-12T21:36:15.169Z,4.13
2023-05-12T21:38:42.344Z,3.70
2023-05-12T21:41:09.360Z,4.13
2023-05-12T21:43:36.445Z,3.13
2023-05-12T21:46:04.709Z,3.83
2023-05-12T21:48:32.278Z,3.17
2023-05-12T21:51:00.881Z,3.95
2023-05-12T21:53:29.209Z,3.72
2023-05-12T21:55:56.379Z,4.20
2023-05-12T21:58:23.892Z,3.75
2023-05-12T22:00:51.815Z,3.92
2023-05-12T22:03:20.579Z,3.65
2023-05-12T22:05:47.891Z,3.55
2023-05-12T22:08:14.937Z,4.25
2023-05-12T22:10:42.635Z,3.88
2023-05-12T22:13:09.869Z,3.53
2023-05-12T22:15:36.970Z,4.20
2023-05-12T22:18:04.117Z,5.13
2023-05-12T22:20:31.472Z,4.63
2023-05-12T22:22:58.693Z,4.60
2023-05-12T22:25:26.126Z,4.55
2023-05-12T22:27:53.258Z,4.47
2023-05-12T22:30:20.650Z,4.15
2023-05-12T22:32:48.005Z,4.75
2023-05-12T22:35:15.354Z,3.78
2023-05-12T22:37:42.406Z,4.60
2023-05-12T22:40:09.930Z,4.38
2023-05-12T22:42:36.884Z,3.83
2023-05-12T22:45:04.939Z,4.50
2023-05-12T22:47:33.043Z,4.50
2023-05-12T22:50:00.938Z,5.00
2023-05-12T22:52:29.356Z,4.70
2023-05-12T22:54:56.531Z,6.43
2023-05-12T22:57:23.629Z,5.75
2023-05-12T22:59:51.251Z,4.80
2023-05-12T23:02:18.387Z,5.13
2023-05-12T23:04:45.687Z,5.40
2023-05-12T23:07:12.897Z,5.63
2023-05-12T23:09:40.372Z,4.45
2023-05-12T23:12:07.775Z,5.57
2023-05-12T23:14:34.805Z,4.72
2023-05-12T23:17:02.122Z,5.65
2023-05-12T23:19:29.307Z,4.90
2023-05-12T23:21:56.283Z,4.72
2023-05-12T23:24:23.398Z,5.78
2023-05-12T23:26:51.052Z,5.18
2023-05-12T23:29:18.190Z,5.47
2023-05-12T23:31:45.305Z,5.32
2023-05-12T23:34:12.536Z,4.72
2023-05-12T23:36:39.578Z,4.88
2023-05-12T23:39:06.652Z,5.95
2023-05-12T23:41:36.345Z,8.45
2023-05-12T23:44:03.900Z,5.78
2023-05-12T23:46:31.003Z,6.18
2023-05-12T23:48:58.120Z,5.30
2023-05-12T23:51:26.028Z,5.35
2023-05-12T23:53:53.124Z,5.93
2023-05-12T23:56:20.174Z,5.63
2023-05-12T23:58:47.735Z,6.00
